Terminal Aerodrome Forecast
Issued by NWS Albany, NY

Home | Current Version | Previous Version | Text Only | Print | Product List | Glossary On
Versions: 1 2 3 4 5 6 7 8 9 10 11 12 13 14 15 16 17 18 19 20 21 22 23
000
FTUS41 KALY 011700
TAFPOU
TAF
KPOU 011736Z 0118/0218 23008KT P6SM SCT040 BKN060
     FM012000 22007KT P6SM SCT060
     FM020100 00000KT P6SM SKC
     FM020600 00000KT 4SM BR SKC
     FM020800 00000KT 1SM BR SCT003 SCT250
     FM021300 22006KT P6SM BKN250=

USA.gov is the U.S. government's official web portal to all federal, state and local government web resources and services.